createdAt,value
2023-01-25T00:00:30.644Z,13.93
2023-01-25T00:02:57.691Z,14.73
2023-01-25T00:05:24.668Z,11.45
2023-01-25T00:07:51.295Z,14.25
2023-01-25T00:10:18.350Z,12.85
2023-01-25T00:12:45.087Z,10.88
2023-01-25T00:15:12.118Z,12.00
2023-01-25T00:17:38.808Z,12.95
2023-01-25T00:20:06.144Z,12.73
2023-01-25T00:22:32.763Z,12.90
2023-01-25T00:24:59.531Z,12.27
2023-01-25T00:27:26.474Z,15.55
2023-01-25T00:29:54.310Z,10.75
2023-01-25T00:32:20.995Z,10.77
2023-01-25T00:34:49.814Z,9.23
2023-01-25T00:37:24.311Z,9.57
2023-01-25T00:39:51.712Z,13.18
2023-01-25T00:42:19.825Z,14.52
2023-01-25T00:44:47.804Z,14.68
2023-01-25T00:47:15.513Z,13.73
2023-01-25T00:49:44.027Z,15.15
2023-01-25T00:52:11.790Z,12.05
2023-01-25T00:54:38.893Z,14.02
2023-01-25T00:57:05.846Z,10.60
2023-01-25T00:59:34.337Z,10.05
2023-01-25T01:02:02.111Z,11.10
2023-01-25T01:04:29.225Z,7.28
2023-01-25T01:06:56.350Z,9.43
2023-01-25T01:09:24.106Z,7.90
2023-01-25T01:11:53.104Z,9.85
2023-01-25T01:14:20.779Z,9.93
2023-01-25T01:16:47.954Z,8.95
2023-01-25T01:19:14.891Z,9.70
2023-01-25T01:21:41.865Z,10.57
2023-01-25T01:24:10.605Z,10.93
2023-01-25T01:26:37.527Z,8.63
2023-01-25T01:29:04.725Z,7.80
2023-01-25T01:31:31.671Z,4.13
2023-01-25T01:34:20.118Z,4.28
2023-01-25T01:36:47.151Z,5.63
2023-01-25T01:39:13.976Z,4.93
2023-01-25T01:41:40.827Z,3.75
2023-01-25T01:44:17.070Z,6.28
2023-01-25T01:46:55.121Z,5.38
2023-01-25T01:49:27.871Z,5.47
2023-01-25T01:52:22.991Z,4.88
2023-01-25T01:54:57.043Z,6.28
2023-01-25T01:57:31.329Z,6.57
2023-01-25T02:00:24.852Z,5.60
2023-01-25T02:02:52.097Z,5.65
2023-01-25T02:05:40.846Z,7.85
2023-01-25T02:08:12.329Z,6.82
2023-01-25T02:10:40.998Z,7.72
2023-01-25T02:13:08.167Z,6.32
2023-01-25T02:15:44.678Z,7.40
2023-01-25T02:18:12.490Z,6.97
2023-01-25T02:20:43.188Z,5.20
2023-01-25T02:23:41.113Z,4.40
2023-01-25T02:26:10.120Z,6.15
2023-01-25T02:28:43.292Z,5.95
2023-01-25T02:31:10.228Z,4.85
2023-01-25T02:33:37.036Z,3.30
2023-01-25T02:36:07.375Z,3.95
2023-01-25T02:38:45.399Z,3.75
2023-01-25T02:41:27.198Z,4.07
2023-01-25T02:43:54.676Z,4.13
2023-01-25T02:46:29.147Z,4.07
2023-01-25T02:48:58.033Z,5.22
2023-01-25T02:51:27.190Z,3.85
2023-01-25T02:53:55.882Z,6.00
2023-01-25T02:56:23.053Z,6.60
2023-01-25T02:58:50.153Z,5.43
2023-01-25T03:01:18.400Z,5.20
2023-01-25T03:03:45.092Z,5.53
2023-01-25T03:06:11.886Z,4.47
2023-01-25T03:08:42.467Z,4.53
2023-01-25T03:11:09.374Z,3.70
2023-01-25T03:13:38.700Z,4.28
2023-01-25T03:16:09.550Z,7.05
2023-01-25T03:18:39.237Z,8.27
2023-01-25T03:21:13.420Z,6.45
2023-01-25T03:23:41.300Z,6.22
2023-01-25T03:26:15.759Z,7.90
2023-01-25T03:28:58.406Z,7.28
2023-01-25T03:31:25.272Z,7.68
2023-01-25T03:33:52.389Z,6.90
2023-01-25T03:36:23.675Z,5.45
2023-01-25T03:38:50.500Z,5.78
2023-01-25T03:41:17.878Z,8.25
2023-01-25T03:43:46.014Z,8.38
2023-01-25T03:46:16.640Z,8.68
2023-01-25T03:48:43.611Z,6.07
2023-01-25T03:51:11.025Z,10.15
2023-01-25T03:53:37.763Z,6.50
2023-01-25T03:56:17.531Z,6.03
2023-01-25T03:58:50.913Z,7.75
2023-01-25T04:01:18.256Z,7.45
2023-01-25T04:03:45.028Z,6.10
2023-01-25T04:06:11.821Z,6.32
2023-01-25T04:08:39.367Z,8.32
2023-01-25T04:11:09.388Z,5.97
2023-01-25T04:13:37.628Z,5.90
2023-01-25T04:16:09.591Z,6.20
2023-01-25T04:19:02.511Z,6.30
2023-01-25T04:21:31.198Z,7.63
2023-01-25T04:23:58.336Z,6.90
2023-01-25T04:26:25.298Z,7.55
2023-01-25T04:28:56.252Z,7.13
2023-01-25T04:31:23.194Z,5.55
2023-01-25T04:33:51.267Z,8.70
2023-01-25T04:36:19.613Z,5.88
2023-01-25T04:38:46.257Z,6.50
2023-01-25T04:41:13.204Z,8.35
2023-01-25T04:43:41.225Z,4.97
2023-01-25T04:46:10.153Z,7.25
2023-01-25T04:48:36.956Z,6.47
2023-01-25T04:51:06.588Z,6.50
2023-01-25T04:53:37.559Z,5.93
2023-01-25T04:56:06.898Z,7.03
2023-01-25T04:58:42.159Z,5.85
2023-01-25T05:01:09.145Z,8.55
2023-01-25T05:03:35.914Z,8.60
2023-01-25T05:06:04.297Z,6.43
2023-01-25T05:08:30.950Z,6.97
2023-01-25T05:11:00.945Z,4.82
2023-01-25T05:13:51.994Z,7.40
2023-01-25T05:16:24.758Z,3.80
2023-01-25T05:18:51.720Z,5.07
2023-01-25T05:21:42.026Z,7.25
2023-01-25T05:24:10.071Z,5.35
2023-01-25T05:26:56.162Z,4.55
2023-01-25T05:29:23.054Z,4.85
2023-01-25T05:32:19.947Z,4.57
2023-01-25T05:34:48.116Z,3.78
2023-01-25T05:37:18.118Z,5.85
2023-01-25T05:39:47.229Z,4.13
2023-01-25T05:42:16.582Z,5.38
2023-01-25T05:44:46.281Z,6.72
2023-01-25T05:47:16.861Z,4.13
2023-01-25T05:49:44.442Z,4.60
2023-01-25T05:52:17.991Z,8.57
2023-01-25T05:54:45.376Z,4.65
2023-01-25T05:57:15.169Z,3.78
2023-01-25T05:59:42.793Z,5.43
2023-01-25T06:02:12.030Z,4.68
2023-01-25T06:04:39.822Z,8.18
2023-01-25T06:07:07.299Z,3.92
2023-01-25T06:09:35.958Z,4.55
2023-01-25T06:12:04.041Z,4.03
2023-01-25T06:14:30.874Z,7.82
2023-01-25T06:16:59.143Z,4.50
2023-01-25T06:19:31.596Z,7.38
2023-01-25T06:22:27.283Z,5.20
2023-01-25T06:24:54.073Z,6.22
2023-01-25T06:27:20.733Z,5.50
2023-01-25T06:29:47.391Z,4.07
2023-01-25T06:32:14.270Z,5.95
2023-01-25T06:34:41.223Z,4.90
2023-01-25T06:37:11.213Z,4.30
2023-01-25T06:39:37.985Z,3.92
2023-01-25T06:42:04.705Z,11.10
2023-01-25T06:44:31.700Z,4.65
2023-01-25T06:46:58.491Z,5.45
2023-01-25T06:49:25.194Z,7.13
2023-01-25T06:51:51.894Z,6.15
2023-01-25T06:54:18.858Z,7.22
2023-01-25T06:56:45.572Z,4.85
2023-01-25T06:59:12.555Z,4.72
2023-01-25T07:01:39.414Z,4.97
2023-01-25T07:04:08.108Z,5.35
2023-01-25T07:06:34.951Z,6.65
2023-01-25T07:09:13.433Z,5.70
2023-01-25T07:11:40.194Z,4.90
2023-01-25T07:14:07.066Z,4.53
2023-01-25T07:16:37.215Z,4.60
2023-01-25T07:19:06.031Z,4.40
2023-01-25T07:21:33.243Z,3.88
2023-01-25T07:24:02.635Z,5.13
2023-01-25T07:26:29.882Z,4.28
2023-01-25T07:28:58.765Z,5.57
2023-01-25T07:31:26.581Z,7.10
2023-01-25T07:33:58.081Z,5.97
2023-01-25T07:36:26.199Z,7.13
2023-01-25T07:38:54.970Z,9.02
2023-01-25T07:41:22.832Z,4.53
2023-01-25T07:43:51.503Z,12.10
2023-01-25T07:46:29.451Z,8.27
2023-01-25T07:48:58.812Z,6.32
2023-01-25T07:51:30.243Z,5.72
2023-01-25T07:54:02.390Z,7.10
2023-01-25T07:56:31.825Z,7.32
2023-01-25T07:59:00.199Z,5.15
2023-01-25T08:01:29.189Z,6.57
2023-01-25T08:03:56.582Z,7.03
2023-01-25T08:06:35.823Z,7.35
2023-01-25T08:09:06.574Z,9.95
2023-01-25T08:11:33.888Z,8.65
2023-01-25T08:14:02.124Z,7.00
2023-01-25T08:16:30.706Z,4.85
2023-01-25T08:18:59.720Z,5.70
2023-01-25T08:21:30.923Z,5.40
2023-01-25T08:23:59.655Z,5.95
2023-01-25T08:26:27.080Z,6.32
2023-01-25T08:28:54.058Z,7.32
2023-01-25T08:31:24.388Z,6.20
2023-01-25T08:33:51.924Z,7.07
2023-01-25T08:36:19.636Z,7.28
2023-01-25T08:38:47.766Z,9.30
2023-01-25T08:41:21.851Z,12.05
2023-01-25T08:43:48.695Z,8.85
2023-01-25T08:46:16.721Z,8.85
2023-01-25T08:48:43.475Z,7.90
2023-01-25T08:51:13.913Z,7.57
2023-01-25T08:53:40.913Z,9.95
2023-01-25T08:56:10.912Z,9.40
2023-01-25T08:58:40.759Z,12.32
2023-01-25T09:01:09.691Z,6.93
2023-01-25T09:03:41.764Z,10.00
2023-01-25T09:06:09.583Z,7.60
2023-01-25T09:08:38.017Z,11.32
2023-01-25T09:11:07.574Z,9.32
2023-01-25T09:13:34.397Z,10.00
2023-01-25T09:16:06.797Z,11.13
2023-01-25T09:18:36.222Z,8.32
2023-01-25T09:21:17.515Z,7.88
2023-01-25T09:23:50.922Z,7.82
2023-01-25T09:26:25.023Z,9.65
2023-01-25T09:28:53.837Z,8.27
2023-01-25T09:31:23.800Z,8.52
2023-01-25T09:34:10.104Z,8.85
2023-01-25T09:36:37.373Z,7.93
2023-01-25T09:39:04.498Z,8.00
2023-01-25T09:42:06.777Z,4.88
2023-01-25T09:44:40.203Z,6.32
2023-01-25T09:47:27.135Z,11.55
2023-01-25T09:50:15.690Z,6.13
2023-01-25T09:53:06.059Z,6.95
2023-01-25T09:55:33.422Z,6.47
2023-01-25T09:58:02.657Z,8.07
2023-01-25T10:00:50.431Z,7.18
2023-01-25T10:03:24.687Z,5.35
2023-01-25T10:09:03.147Z,4.97
2023-01-25T10:11:31.976Z,8.98
2023-01-25T10:13:59.649Z,5.50
2023-01-25T10:16:50.261Z,5.82
2023-01-25T10:19:52.309Z,6.65
2023-01-25T10:22:30.783Z,4.78
2023-01-25T10:25:13.823Z,6.13
2023-01-25T10:27:45.685Z,6.90
2023-01-25T10:30:58.726Z,7.38
2023-01-25T10:33:28.470Z,9.10
2023-01-25T10:35:59.958Z,7.10
2023-01-25T10:38:35.449Z,12.05
2023-01-25T10:41:12.223Z,8.30
2023-01-25T10:43:39.268Z,9.23
2023-01-25T10:46:35.945Z,12.02
2023-01-25T10:49:37.555Z,12.07
2023-01-25T10:52:15.098Z,11.20
2023-01-25T10:54:42.167Z,9.63
2023-01-25T10:57:14.685Z,12.48
2023-01-25T10:59:45.908Z,9.85
2023-01-25T11:02:41.697Z,16.27
2023-01-25T11:05:30.192Z,13.68
2023-01-25T11:07:57.955Z,11.98
2023-01-25T11:10:36.530Z,13.15
2023-01-25T11:13:15.614Z,12.15
2023-01-25T11:15:48.581Z,11.88
2023-01-25T11:18:35.081Z,12.82
2023-01-25T11:21:23.227Z,13.55
2023-01-25T11:24:10.133Z,13.60
2023-01-25T11:26:39.602Z,11.52
2023-01-25T11:29:19.845Z,12.70
2023-01-25T11:31:50.134Z,11.60
2023-01-25T11:34:20.895Z,11.30
2023-01-25T11:36:59.552Z,11.98
2023-01-25T11:39:40.357Z,13.95
2023-01-25T11:42:23.214Z,14.70
2023-01-25T11:45:19.385Z,12.73
2023-01-25T11:47:58.404Z,17.02
2023-01-25T11:50:57.074Z,15.65
2023-01-25T11:53:42.352Z,19.98
2023-01-25T11:56:28.334Z,22.35
2023-01-25T11:59:13.334Z,20.83
2023-01-25T12:01:52.114Z,18.55
2023-01-25T12:04:47.046Z,28.90
2023-01-25T12:07:35.356Z,24.65
2023-01-25T12:10:29.872Z,26.35
2023-01-25T12:13:09.233Z,23.83
2023-01-25T12:15:58.556Z,26.23
2023-01-25T12:18:50.155Z,28.23
2023-01-25T12:21:51.971Z,31.48
2023-01-25T12:24:35.343Z,29.20
2023-01-25T12:27:12.098Z,28.77
2023-01-25T12:29:48.274Z,25.38
2023-01-25T12:32:27.544Z,25.85
2023-01-25T12:35:20.818Z,18.95
2023-01-25T12:37:49.941Z,26.17
2023-01-25T12:40:28.760Z,25.00
2023-01-25T12:42:59.834Z,22.02
2023-01-25T12:45:34.357Z,23.70
2023-01-25T12:48:14.337Z,21.95
2023-01-25T12:50:52.034Z,24.25
2023-01-25T12:53:38.436Z,25.80
2023-01-25T12:56:08.875Z,22.05
2023-01-25T12:58:43.734Z,22.77
2023-01-25T13:01:38.174Z,24.15
2023-01-25T13:04:23.455Z,25.38
2023-01-25T13:07:07.483Z,28.50
2023-01-25T13:09:43.302Z,27.30
2023-01-25T13:12:12.255Z,27.48
2023-01-25T13:14:40.905Z,22.42
2023-01-25T13:17:38.102Z,28.55
2023-01-25T13:20:37.364Z,23.42
2023-01-25T13:23:04.095Z,21.65
2023-01-25T13:25:31.008Z,22.70
2023-01-25T13:28:55.255Z,21.52
2023-01-25T13:31:51.401Z,22.38
2023-01-25T13:34:40.447Z,21.45
2023-01-25T13:37:30.129Z,18.52
2023-01-25T13:40:37.700Z,20.67
2023-01-25T13:43:16.876Z,21.65
2023-01-25T13:45:45.917Z,17.90
2023-01-25T13:48:22.561Z,19.30
2023-01-25T13:50:56.017Z,16.75
2023-01-25T13:53:25.079Z,18.80
2023-01-25T13:55:56.817Z,18.20
2023-01-25T13:58:34.357Z,20.77
2023-01-25T14:01:08.167Z,17.45
2023-01-25T14:03:43.415Z,16.33
2023-01-25T14:06:20.599Z,17.25
2023-01-25T14:08:48.121Z,17.00
2023-01-25T14:11:29.669Z,18.55
2023-01-25T14:14:03.808Z,18.80
2023-01-25T14:16:31.989Z,19.55
2023-01-25T14:19:31.646Z,20.52
2023-01-25T14:22:20.040Z,17.20
2023-01-25T14:25:22.767Z,15.68
2023-01-25T14:28:02.418Z,17.35
2023-01-25T14:30:36.428Z,20.35
2023-01-25T14:33:17.512Z,18.02
2023-01-25T14:36:11.562Z,16.02
2023-01-25T14:38:38.340Z,16.13
2023-01-25T14:41:43.816Z,17.15
2023-01-25T14:44:16.183Z,17.20
2023-01-25T14:46:42.971Z,17.90
2023-01-25T14:49:25.649Z,15.77
2023-01-25T14:52:14.450Z,14.70
2023-01-25T14:54:52.404Z,13.95
2023-01-25T14:57:41.399Z,17.20
2023-01-25T15:00:21.424Z,16.90
2023-01-25T15:02:56.629Z,15.02
2023-01-25T15:05:27.554Z,22.20
2023-01-25T15:08:13.019Z,15.18
2023-01-25T15:10:54.243Z,14.13
2023-01-25T15:13:22.266Z,14.43
2023-01-25T15:16:00.584Z,15.82
2023-01-25T15:18:50.982Z,15.77
2023-01-25T15:21:31.923Z,17.02
2023-01-25T15:24:06.913Z,17.55
2023-01-25T15:26:35.696Z,17.63
2023-01-25T15:29:15.736Z,22.33
2023-01-25T15:31:42.967Z,18.70
2023-01-25T15:34:22.102Z,22.00
2023-01-25T15:36:48.854Z,19.40
2023-01-25T15:39:17.792Z,18.13
2023-01-25T15:41:45.013Z,15.68
2023-01-25T15:44:12.515Z,16.35
2023-01-25T15:46:45.909Z,19.13
2023-01-25T15:49:18.781Z,17.15
2023-01-25T15:51:45.893Z,17.08
2023-01-25T15:54:12.568Z,21.27
2023-01-25T15:56:41.871Z,23.70
2023-01-25T15:59:15.589Z,18.98
2023-01-25T16:01:42.339Z,19.33
2023-01-25T16:04:10.309Z,19.02
2023-01-25T16:06:51.522Z,18.15
2023-01-25T16:09:22.264Z,19.15
2023-01-25T16:11:54.455Z,19.17
2023-01-25T16:14:23.696Z,18.33
2023-01-25T16:16:52.833Z,20.58
2023-01-25T16:19:22.130Z,22.58
2023-01-25T16:21:49.295Z,20.05
2023-01-25T16:24:16.629Z,19.33
2023-01-25T16:26:54.338Z,21.92
2023-01-25T16:29:23.084Z,17.27
2023-01-25T16:31:50.790Z,17.70
2023-01-25T16:34:17.767Z,16.73
2023-01-25T16:36:50.082Z,16.02
2023-01-25T16:39:21.585Z,17.13
2023-01-25T16:41:49.219Z,14.95
2023-01-25T16:44:17.089Z,16.80
2023-01-25T16:46:44.601Z,23.05
2023-01-25T16:49:16.429Z,18.27
2023-01-25T16:51:45.378Z,20.83
2023-01-25T16:54:12.434Z,20.73
2023-01-25T16:56:39.287Z,23.73
2023-01-25T16:59:07.253Z,22.55
2023-01-25T17:01:34.037Z,22.83
2023-01-25T17:04:00.696Z,28.08
2023-01-25T17:06:33.808Z,23.48
2023-01-25T17:09:12.692Z,22.67
2023-01-25T17:11:47.910Z,22.63
2023-01-25T17:14:16.625Z,23.35
2023-01-25T17:16:45.056Z,18.05
2023-01-25T17:19:15.079Z,17.55
2023-01-25T17:21:41.925Z,19.67
2023-01-25T17:24:08.901Z,15.43
2023-01-25T17:26:35.773Z,20.40
2023-01-25T17:29:02.841Z,18.33
2023-01-25T17:31:33.437Z,18.23
2023-01-25T17:34:05.568Z,16.70
2023-01-25T17:36:32.343Z,19.92
2023-01-25T17:39:06.217Z,24.52
2023-01-25T17:41:33.316Z,19.63
2023-01-25T17:43:59.954Z,21.25
2023-01-25T17:46:30.146Z,23.98
2023-01-25T17:48:57.471Z,22.40
2023-01-25T17:51:25.139Z,18.67
2023-01-25T17:53:52.879Z,22.92
2023-01-25T17:56:20.332Z,23.45
2023-01-25T17:58:47.407Z,24.92
2023-01-25T18:01:19.366Z,20.80
2023-01-25T18:03:47.960Z,19.63
2023-01-25T18:06:17.473Z,21.77
2023-01-25T18:08:48.925Z,20.98
2023-01-25T18:11:21.230Z,22.17
2023-01-25T18:13:50.997Z,22.38
2023-01-25T18:16:21.586Z,23.40
2023-01-25T18:18:50.661Z,18.67
2023-01-25T18:21:25.067Z,20.98
2023-01-25T18:24:05.807Z,23.83
2023-01-25T18:26:36.986Z,18.42
2023-01-25T18:29:09.882Z,17.63
2023-01-25T18:31:37.261Z,18.13
2023-01-25T18:34:04.980Z,18.40
2023-01-25T18:36:31.715Z,20.48
2023-01-25T18:38:59.901Z,18.17
2023-01-25T18:41:26.652Z,19.63
2023-01-25T18:43:53.405Z,18.67
2023-01-25T18:46:20.120Z,18.45
2023-01-25T18:48:47.281Z,18.85
2023-01-25T18:51:17.464Z,19.90
2023-01-25T18:53:47.275Z,18.67
2023-01-25T18:56:19.430Z,21.58
2023-01-25T18:58:46.922Z,21.52
2023-01-25T19:01:19.639Z,20.42
2023-01-25T19:03:47.685Z,24.00
2023-01-25T19:06:15.049Z,21.50
2023-01-25T19:08:44.259Z,24.40
2023-01-25T19:11:13.562Z,28.48
2023-01-25T19:13:41.877Z,20.67
2023-01-25T19:16:17.670Z,22.88
2023-01-25T19:18:47.001Z,22.30
2023-01-25T19:21:16.633Z,22.98
2023-01-25T19:23:43.811Z,20.58
2023-01-25T19:26:16.192Z,20.77
2023-01-25T19:28:43.656Z,22.73
2023-01-25T19:31:16.039Z,18.58
2023-01-25T19:33:43.887Z,22.80
2023-01-25T19:36:18.240Z,16.55
2023-01-25T19:38:46.476Z,19.02
2023-01-25T19:41:17.958Z,17.13
2023-01-25T19:43:44.896Z,17.08
2023-01-25T19:46:17.059Z,17.55
2023-01-25T19:48:47.148Z,19.25
2023-01-25T19:51:18.677Z,19.95
2023-01-25T19:53:47.592Z,17.75
2023-01-25T19:56:17.221Z,16.38
2023-01-25T19:58:45.904Z,19.00
2023-01-25T20:01:15.143Z,21.52
2023-01-25T20:03:42.482Z,17.88
2023-01-25T20:06:13.127Z,17.23
2023-01-25T20:08:42.351Z,15.25
2023-01-25T20:11:15.341Z,17.05
2023-01-25T20:13:42.959Z,17.80
2023-01-25T20:16:11.455Z,20.77
2023-01-25T20:18:38.984Z,24.67
2023-01-25T20:21:07.850Z,21.52
2023-01-25T20:23:37.488Z,25.55
2023-01-25T20:26:11.031Z,22.63
2023-01-25T20:28:37.785Z,20.75
2023-01-25T20:31:04.713Z,22.77
2023-01-25T20:33:32.171Z,19.33
2023-01-25T20:36:03.675Z,22.25
2023-01-25T20:38:34.470Z,19.85
2023-01-25T20:41:05.971Z,19.42
2023-01-25T20:43:33.249Z,19.13
2023-01-25T20:46:01.031Z,23.73
2023-01-25T20:48:29.280Z,20.58
2023-01-25T20:51:04.756Z,19.30
2023-01-25T20:55:58.531Z,25.75
2023-01-25T20:58:26.389Z,22.50
2023-01-25T21:00:53.745Z,25.35
2023-01-25T21:03:21.570Z,22.38
2023-01-25T21:05:56.595Z,23.40
2023-01-25T21:08:24.356Z,24.27
2023-01-25T21:10:53.536Z,22.00
2023-01-25T21:13:21.164Z,23.70
2023-01-25T21:16:14.626Z,23.45
2023-01-25T21:18:42.707Z,23.80
2023-01-25T21:21:14.689Z,19.98
2023-01-25T21:23:44.911Z,23.13
2023-01-25T21:26:15.891Z,21.58
2023-01-25T21:28:43.093Z,21.75
2023-01-25T21:31:13.033Z,24.73
2023-01-25T21:33:40.441Z,23.50
2023-01-25T21:36:14.294Z,19.80
2023-01-25T21:38:42.892Z,23.45
2023-01-25T21:41:21.473Z,21.52
2023-01-25T21:44:07.473Z,20.40
2023-01-25T21:46:34.960Z,19.17
2023-01-25T21:49:23.047Z,18.98
2023-01-25T21:51:52.716Z,15.45
2023-01-25T21:54:26.504Z,19.20
2023-01-25T21:56:56.071Z,17.95
2023-01-25T21:59:23.346Z,16.58
2023-01-25T22:01:51.047Z,22.10
2023-01-25T22:04:19.319Z,21.00
2023-01-25T22:06:48.683Z,16.55
2023-01-25T22:09:15.654Z,17.83
2023-01-25T22:11:45.872Z,15.00
2023-01-25T22:14:13.955Z,18.75
2023-01-25T22:16:40.745Z,16.67
2023-01-25T22:19:08.012Z,18.42
2023-01-25T22:21:34.732Z,20.08
2023-01-25T22:24:03.422Z,15.65
2023-01-25T22:26:39.282Z,19.77
2023-01-25T22:29:06.123Z,17.25
2023-01-25T22:31:33.036Z,20.52
2023-01-25T22:34:00.536Z,19.98
2023-01-25T22:36:29.056Z,18.05
2023-01-25T22:38:56.343Z,18.23
2023-01-25T22:41:29.068Z,23.17
2023-01-25T22:43:55.904Z,21.00
2023-01-25T22:46:25.599Z,22.08
2023-01-25T22:48:52.722Z,20.67
2023-01-25T22:51:24.506Z,18.27
2023-01-25T22:53:52.273Z,19.67
2023-01-25T22:56:21.117Z,24.80
2023-01-25T22:58:47.872Z,21.45
2023-01-25T23:01:21.522Z,22.75
2023-01-25T23:03:49.265Z,24.67
2023-01-25T23:06:19.033Z,23.20
2023-01-25T23:08:46.558Z,18.25
2023-01-25T23:11:15.469Z,23.65
2023-01-25T23:14:03.270Z,20.80
2023-01-25T23:16:30.583Z,18.27
2023-01-25T23:18:57.961Z,17.55
2023-01-25T23:21:27.755Z,21.63
2023-01-25T23:24:02.224Z,22.20
2023-01-25T23:26:37.561Z,22.33
2023-01-25T23:29:09.624Z,18.95
2023-01-25T23:31:37.162Z,19.35
2023-01-25T23:34:06.239Z,16.85
2023-01-25T23:36:35.984Z,20.38
2023-01-25T23:39:03.135Z,19.88
2023-01-25T23:41:31.635Z,19.77
2023-01-25T23:43:59.698Z,21.83
2023-01-25T23:46:28.194Z,21.50
2023-01-25T23:48:55.190Z,22.08
2023-01-25T23:51:22.088Z,29.27
2023-01-25T23:53:48.778Z,25.00
2023-01-25T23:56:21.328Z,26.10
2023-01-25T23:58:49.000Z,27.45
